createdAt,value
2022-09-12T00:02:04.717Z,12.90
2022-09-12T00:04:31.879Z,12.84
2022-09-12T00:06:59.013Z,12.88
2022-09-12T00:09:26.165Z,12.85
2022-09-12T00:11:53.353Z,12.84
2022-09-12T00:14:20.588Z,12.48
2022-09-12T00:16:47.894Z,12.77
2022-09-12T00:19:15.418Z,12.70
2022-09-12T00:21:42.880Z,12.78
2022-09-12T00:24:11.230Z,12.78
2022-09-12T00:26:38.415Z,12.75
2022-09-12T00:29:05.777Z,12.61
2022-09-12T00:31:33.088Z,12.67
2022-09-12T00:34:04.119Z,12.73
2022-09-12T00:36:31.631Z,12.58
2022-09-12T00:38:59.412Z,12.64
2022-09-12T00:41:32.671Z,12.72
2022-09-12T00:44:21.522Z,12.73
2022-09-12T00:47:01.072Z,12.64
2022-09-12T00:49:33.962Z,12.73
2022-09-12T00:52:07.161Z,12.73
2022-09-12T00:54:58.560Z,12.53
2022-09-12T00:57:31.541Z,12.53
2022-09-12T01:00:14.382Z,12.69
2022-09-12T01:02:49.426Z,12.68
2022-09-12T01:05:17.210Z,12.69
2022-09-12T01:07:48.734Z,12.70
2022-09-12T01:10:16.784Z,12.63
2022-09-12T01:12:44.704Z,12.68
2022-09-12T01:15:12.141Z,12.70
2022-09-12T01:17:54.675Z,12.68
2022-09-12T01:20:33.502Z,12.70
2022-09-12T01:23:19.835Z,12.61
2022-09-12T01:26:24.499Z,12.68
2022-09-12T01:29:06.837Z,12.64
2022-09-12T01:31:44.625Z,12.66
2022-09-12T01:34:26.613Z,12.68
2022-09-12T01:36:56.745Z,12.69
2022-09-12T01:39:32.829Z,12.69
2022-09-12T01:42:07.023Z,12.66
2022-09-12T01:45:07.476Z,12.64
2022-09-12T01:47:50.234Z,12.61
2022-09-12T01:50:26.081Z,12.57
2022-09-12T01:53:09.265Z,12.39
2022-09-12T01:55:36.368Z,12.62
2022-09-12T01:58:11.980Z,12.62
2022-09-12T02:00:48.557Z,12.61
2022-09-12T02:03:20.492Z,12.51
2022-09-12T02:05:54.083Z,12.60
2022-09-12T02:08:28.894Z,12.60
2022-09-12T02:11:09.588Z,12.59
2022-09-12T02:13:50.088Z,12.57
2022-09-12T02:16:26.674Z,12.55
2022-09-12T02:18:58.240Z,12.51
2022-09-12T02:21:27.602Z,12.53
2022-09-12T02:24:01.615Z,12.56
2022-09-12T02:26:52.533Z,12.54
2022-09-12T02:29:19.579Z,12.55
2022-09-12T02:32:00.776Z,12.51
2022-09-12T02:34:34.988Z,12.53
2022-09-12T02:37:15.621Z,12.26
2022-09-12T02:39:45.357Z,12.39
2022-09-12T02:42:13.941Z,12.38
2022-09-12T02:44:41.971Z,12.57
2022-09-12T02:47:23.812Z,12.40
2022-09-12T02:49:51.819Z,12.63
2022-09-12T02:52:19.729Z,12.68
2022-09-12T02:54:48.092Z,12.47
2022-09-12T02:57:22.820Z,12.73
2022-09-12T02:59:54.419Z,12.70
2022-09-12T03:02:39.979Z,12.72
2022-09-12T03:05:19.106Z,12.72
2022-09-12T03:08:04.459Z,12.67
2022-09-12T03:10:50.070Z,12.69
2022-09-12T03:13:19.878Z,12.70
2022-09-12T03:16:31.863Z,12.67
2022-09-12T03:19:09.934Z,12.52
2022-09-12T03:21:57.012Z,12.65
2022-09-12T03:24:43.413Z,12.67
2022-09-12T03:27:16.625Z,12.57
2022-09-12T03:29:46.460Z,12.65
2022-09-12T03:32:14.219Z,12.63
2022-09-12T03:34:41.579Z,12.49
2022-09-12T03:37:08.663Z,12.73
2022-09-12T03:39:35.702Z,12.74
2022-09-12T03:42:02.831Z,12.62
2022-09-12T03:44:30.146Z,12.45
2022-09-12T03:46:57.434Z,12.15
2022-09-12T03:49:24.597Z,12.83
2022-09-12T03:51:51.658Z,12.60
2022-09-12T03:54:18.818Z,12.81
2022-09-12T03:56:45.919Z,12.77
2022-09-12T03:59:13.301Z,12.74
2022-09-12T04:01:42.039Z,12.51
2022-09-12T04:04:09.658Z,12.81
2022-09-12T04:06:36.699Z,12.64
2022-09-12T04:09:04.179Z,12.78
2022-09-12T04:11:32.469Z,12.68
2022-09-12T04:14:00.049Z,12.74
2022-09-12T04:16:27.580Z,12.72
2022-09-12T04:18:54.790Z,12.64
2022-09-12T04:21:22.429Z,12.64
2022-09-12T04:23:49.734Z,12.61
2022-09-12T04:26:18.793Z,12.66
2022-09-12T04:28:46.882Z,12.64
2022-09-12T04:31:22.805Z,12.67
2022-09-12T04:33:58.313Z,12.69
2022-09-12T04:36:26.579Z,12.72
2022-09-12T04:38:54.134Z,12.72
2022-09-12T04:41:26.548Z,12.78
2022-09-12T04:43:56.212Z,12.82
2022-09-12T04:46:23.267Z,12.79
2022-09-12T04:48:55.936Z,12.73
2022-09-12T04:51:29.259Z,12.81
2022-09-12T04:53:59.686Z,12.79
2022-09-12T04:56:27.460Z,12.77
2022-09-12T04:58:56.821Z,12.36
2022-09-12T05:01:24.098Z,12.77
2022-09-12T05:03:52.105Z,12.42
2022-09-12T05:06:23.104Z,12.77
2022-09-12T05:08:51.382Z,12.84
2022-09-12T05:11:26.552Z,12.90
2022-09-12T05:13:55.589Z,12.60
2022-09-12T05:16:24.046Z,12.93
2022-09-12T05:18:51.335Z,12.94
2022-09-12T05:21:21.306Z,12.94
2022-09-12T05:23:55.149Z,12.27
2022-09-12T05:26:23.550Z,12.45
2022-09-12T05:28:51.972Z,12.99
2022-09-12T05:31:24.560Z,13.17
2022-09-12T05:33:53.579Z,13.17
2022-09-12T05:36:24.239Z,13.18
2022-09-12T05:38:51.739Z,13.23
2022-09-12T05:41:25.242Z,13.25
2022-09-12T05:43:54.904Z,13.23
2022-09-12T05:46:24.443Z,13.24
2022-09-12T05:48:56.126Z,13.24
2022-09-12T05:51:26.941Z,13.28
2022-09-12T05:53:57.866Z,13.50
2022-09-12T05:56:27.573Z,13.53
2022-09-12T05:59:00.779Z,13.25
2022-09-12T06:01:29.363Z,13.56
2022-09-12T06:03:59.297Z,13.56
2022-09-12T06:06:28.111Z,13.61
2022-09-12T06:08:58.919Z,13.69
2022-09-12T06:11:29.107Z,13.90
2022-09-12T06:13:57.983Z,14.07
2022-09-12T06:16:27.771Z,14.10
2022-09-12T06:19:04.840Z,14.10
2022-09-12T06:21:32.188Z,13.71
2022-09-12T06:23:59.462Z,14.07
2022-09-12T06:26:29.420Z,14.32
2022-09-12T06:28:59.682Z,14.35
2022-09-12T06:31:33.685Z,14.36
2022-09-12T06:34:04.429Z,14.36
2022-09-12T06:36:37.779Z,14.34
2022-09-12T06:39:13.535Z,14.19
2022-09-12T06:41:43.944Z,14.45
2022-09-12T06:44:19.462Z,14.52
2022-09-12T06:46:47.343Z,14.57
2022-09-12T06:49:14.834Z,14.45
2022-09-12T06:51:44.954Z,14.65
2022-09-12T06:54:17.408Z,14.59
2022-09-12T06:56:45.081Z,14.80
2022-09-12T06:59:12.750Z,14.92
2022-09-12T07:01:41.459Z,15.07
2022-09-12T07:04:08.855Z,14.93
2022-09-12T07:06:41.953Z,14.82
2022-09-12T07:09:14.261Z,15.15
2022-09-12T07:11:42.682Z,15.13
2022-09-12T07:14:14.192Z,15.17
2022-09-12T07:16:42.072Z,15.22
2022-09-12T07:19:09.996Z,15.17
2022-09-12T07:21:40.506Z,15.02
2022-09-12T07:24:10.017Z,15.31
2022-09-12T07:26:38.019Z,15.39
2022-09-12T07:29:32.325Z,15.59
2022-09-12T07:31:52.775Z,15.73
2022-09-12T07:34:19.918Z,15.87
2022-09-12T07:36:47.053Z,15.97
2022-09-12T07:39:14.260Z,16.01
2022-09-12T07:41:41.724Z,16.30
2022-09-12T07:44:09.001Z,16.39
2022-09-12T07:46:36.127Z,16.49
2022-09-12T07:49:03.310Z,16.48
2022-09-12T07:51:31.070Z,16.55
2022-09-12T07:53:58.662Z,16.75
2022-09-12T07:56:30.128Z,16.86
2022-09-12T07:58:57.844Z,16.84
2022-09-12T08:01:25.194Z,16.70
2022-09-12T08:03:57.940Z,16.66
2022-09-12T08:06:26.760Z,16.80
2022-09-12T08:08:56.518Z,16.73
2022-09-12T08:11:25.629Z,16.59
2022-09-12T08:13:56.250Z,16.16
2022-09-12T08:16:29.892Z,16.40
2022-09-12T08:18:57.424Z,16.17
2022-09-12T08:21:26.871Z,16.74
2022-09-12T08:23:56.629Z,17.09
2022-09-12T08:26:25.022Z,17.23
2022-09-12T08:28:53.431Z,17.73
2022-09-12T08:31:24.135Z,17.70
2022-09-12T08:33:52.140Z,17.60
2022-09-12T08:36:23.293Z,17.44
2022-09-12T08:38:59.233Z,17.27
2022-09-12T08:41:32.469Z,17.11
2022-09-12T08:44:05.583Z,17.02
2022-09-12T08:46:41.293Z,17.18
2022-09-12T08:49:15.814Z,17.16
2022-09-12T08:51:43.440Z,17.44
2022-09-12T08:54:24.450Z,17.26
2022-09-12T08:56:53.669Z,17.46
2022-09-12T08:59:21.262Z,17.77
2022-09-12T09:01:55.475Z,17.95
2022-09-12T09:04:26.860Z,17.98
2022-09-12T09:07:14.991Z,17.72
2022-09-12T09:09:51.133Z,17.49
2022-09-12T09:12:45.490Z,17.54
2022-09-12T09:15:24.044Z,17.89
2022-09-12T09:18:00.860Z,18.05
2022-09-12T09:20:31.676Z,17.97
2022-09-12T09:23:05.799Z,17.78
2022-09-12T09:25:51.140Z,17.58
2022-09-12T09:28:23.988Z,17.43
2022-09-12T09:30:51.615Z,17.36
2022-09-12T09:33:23.273Z,17.31
2022-09-12T09:36:09.270Z,17.56
2022-09-12T09:39:04.425Z,17.69
2022-09-12T09:41:42.502Z,17.95
2022-09-12T09:44:10.714Z,17.98
2022-09-12T09:46:37.929Z,17.96
2022-09-12T09:49:07.509Z,18.00
2022-09-12T09:51:39.021Z,17.87
2022-09-12T09:54:28.349Z,18.02
2022-09-12T09:56:56.632Z,17.79
2022-09-12T09:59:32.023Z,18.60
2022-09-12T10:02:03.586Z,18.77
2022-09-12T10:04:39.237Z,18.65
2022-09-12T10:07:19.020Z,18.26
2022-09-12T10:10:16.007Z,18.15
2022-09-12T10:12:43.804Z,18.12
2022-09-12T10:15:24.139Z,18.52
2022-09-12T10:17:51.658Z,18.74
2022-09-12T10:20:33.223Z,18.63
2022-09-12T10:23:02.902Z,18.37
2022-09-12T10:25:30.395Z,18.31
2022-09-12T10:28:00.738Z,18.81
2022-09-12T10:30:28.994Z,19.14
2022-09-12T10:33:12.515Z,19.26
2022-09-12T10:35:46.457Z,19.67
2022-09-12T10:38:21.662Z,19.83
2022-09-12T10:40:59.121Z,19.95
2022-09-12T10:43:37.655Z,20.09
2022-09-12T10:46:16.931Z,20.18
2022-09-12T10:48:48.465Z,20.19
2022-09-12T10:51:29.986Z,19.88
2022-09-12T10:54:05.083Z,19.76
2022-09-12T10:56:52.672Z,19.84
2022-09-12T10:59:34.708Z,20.10
2022-09-12T11:02:15.233Z,20.08
2022-09-12T11:04:56.458Z,20.21
2022-09-12T11:07:42.345Z,20.26
2022-09-12T11:10:52.071Z,20.48
2022-09-12T11:13:27.392Z,20.52
2022-09-12T11:16:20.161Z,20.34
2022-09-12T11:18:58.582Z,20.27
2022-09-12T11:21:45.378Z,20.12
2022-09-12T11:24:21.629Z,20.13
2022-09-12T11:26:57.754Z,20.09
2022-09-12T11:29:35.533Z,19.88
2022-09-12T11:32:08.624Z,19.72
2022-09-12T11:34:54.110Z,19.63
2022-09-12T11:37:40.222Z,19.82
2022-09-12T11:40:18.581Z,19.83
2022-09-12T11:42:48.338Z,19.76
2022-09-12T11:45:43.360Z,19.60
2022-09-12T11:48:32.546Z,19.84
2022-09-12T11:51:03.299Z,19.73
2022-09-12T11:53:36.952Z,19.56
2022-09-12T11:56:18.942Z,19.49
2022-09-12T11:58:59.953Z,19.52
2022-09-12T12:01:41.293Z,19.66
2022-09-12T12:04:15.978Z,19.84
2022-09-12T12:07:06.226Z,19.97
2022-09-12T12:09:34.572Z,20.07
2022-09-12T12:12:09.743Z,20.23
2022-09-12T12:14:47.209Z,20.13
2022-09-12T12:17:25.644Z,20.05
2022-09-12T12:20:08.427Z,19.86
2022-09-12T12:22:36.351Z,19.93
2022-09-12T12:25:12.421Z,19.90
2022-09-12T12:27:56.188Z,19.81
2022-09-12T12:30:32.310Z,19.91
2022-09-12T12:33:13.460Z,20.02
2022-09-12T12:35:47.106Z,20.15
2022-09-12T12:38:31.900Z,20.23
2022-09-12T12:41:17.529Z,20.25
2022-09-12T12:43:48.700Z,20.13
2022-09-12T12:46:21.098Z,20.05
2022-09-12T12:49:20.254Z,20.05
2022-09-12T12:52:01.812Z,20.29
2022-09-12T12:54:40.413Z,20.43
2022-09-12T12:57:13.579Z,20.47
2022-09-12T13:00:05.380Z,20.41
2022-09-12T13:02:42.009Z,19.99
2022-09-12T13:05:22.465Z,19.86
2022-09-12T13:07:56.536Z,19.62
2022-09-12T13:10:29.032Z,19.45
2022-09-12T13:13:00.079Z,19.17
2022-09-12T13:15:36.482Z,19.11
2022-09-12T13:18:11.580Z,18.86
2022-09-12T13:20:48.477Z,18.95
2022-09-12T13:23:28.063Z,18.97
2022-09-12T13:25:57.598Z,19.06
2022-09-12T13:28:26.670Z,19.08
2022-09-12T13:31:18.349Z,19.06
2022-09-12T13:33:56.278Z,19.03
2022-09-12T13:36:35.673Z,19.09
2022-09-12T13:39:12.069Z,19.18
2022-09-12T13:41:39.280Z,19.25
2022-09-12T13:44:11.822Z,19.18
2022-09-12T13:46:39.816Z,19.26
2022-09-12T13:49:21.183Z,19.30
2022-09-12T13:52:03.742Z,19.22
2022-09-12T13:54:33.053Z,19.43
2022-09-12T13:57:00.626Z,19.31
2022-09-12T13:59:28.106Z,19.49
2022-09-12T14:01:55.575Z,19.48
2022-09-12T14:04:43.939Z,19.39
2022-09-12T14:07:23.176Z,18.95
2022-09-12T14:09:59.259Z,19.20
2022-09-12T14:12:32.784Z,19.15
2022-09-12T14:14:59.949Z,19.04
2022-09-12T14:17:39.568Z,18.91
2022-09-12T14:20:14.463Z,18.93
2022-09-12T14:22:41.973Z,18.84
2022-09-12T14:25:16.732Z,18.84
2022-09-12T14:27:55.901Z,18.83
2022-09-12T14:30:27.224Z,18.84
2022-09-12T14:33:12.591Z,18.85
2022-09-12T14:36:21.469Z,18.79
2022-09-12T14:38:52.699Z,18.30
2022-09-12T14:41:31.586Z,18.76
2022-09-12T14:44:10.701Z,18.69
2022-09-12T14:46:39.567Z,18.65
2022-09-12T14:49:12.434Z,18.68
2022-09-12T14:51:47.132Z,18.48
2022-09-12T14:54:28.831Z,18.85
2022-09-12T14:56:57.324Z,18.96
2022-09-12T14:59:35.227Z,19.04
2022-09-12T15:02:17.477Z,19.14
2022-09-12T15:04:49.899Z,18.91
2022-09-12T15:07:34.063Z,19.01
2022-09-12T15:10:37.972Z,18.93
2022-09-12T15:13:16.867Z,19.13
2022-09-12T15:15:52.027Z,18.95
2022-09-12T15:18:20.664Z,18.87
2022-09-12T15:20:50.859Z,18.80
2022-09-12T15:23:25.387Z,18.92
2022-09-12T15:25:52.739Z,18.75
2022-09-12T15:28:22.094Z,18.81
2022-09-12T15:30:51.533Z,18.81
2022-09-12T15:33:20.662Z,18.67
2022-09-12T15:35:47.910Z,18.76
2022-09-12T15:38:15.228Z,18.55
2022-09-12T15:40:42.514Z,18.70
2022-09-12T15:43:13.177Z,18.67
2022-09-12T15:45:43.856Z,18.88
2022-09-12T15:48:11.079Z,18.82
2022-09-12T15:50:38.242Z,18.95
2022-09-12T15:53:05.299Z,18.96
2022-09-12T15:55:33.228Z,18.81
2022-09-12T15:58:04.874Z,18.76
2022-09-12T16:00:34.152Z,18.65
2022-09-12T16:03:01.461Z,18.50
2022-09-12T16:05:29.781Z,18.68
2022-09-12T16:07:56.953Z,18.65
2022-09-12T16:10:28.018Z,18.64
2022-09-12T16:12:55.540Z,18.60
2022-09-12T16:15:25.311Z,18.53
2022-09-12T16:17:53.292Z,18.47
2022-09-12T16:20:21.381Z,18.37
2022-09-12T16:22:49.262Z,18.05
2022-09-12T16:25:17.606Z,18.24
2022-09-12T16:27:45.060Z,18.13
2022-09-12T16:30:13.484Z,18.05
2022-09-12T16:32:40.914Z,18.04
2022-09-12T16:35:08.748Z,17.89
2022-09-12T16:37:36.385Z,17.88
2022-09-12T16:40:05.229Z,17.76
2022-09-12T16:42:32.722Z,17.65
2022-09-12T16:45:00.023Z,17.43
2022-09-12T16:47:27.471Z,17.34
2022-09-12T16:49:54.710Z,17.28
2022-09-12T16:52:21.932Z,17.27
2022-09-12T16:54:49.023Z,17.03
2022-09-12T16:57:16.296Z,17.04
2022-09-12T16:59:43.461Z,16.93
2022-09-12T17:02:12.877Z,16.97
2022-09-12T17:04:40.583Z,16.84
2022-09-12T17:07:08.693Z,16.79
2022-09-12T17:09:35.866Z,16.72
2022-09-12T17:12:03.263Z,16.38
2022-09-12T17:14:30.858Z,16.40
2022-09-12T17:16:57.938Z,16.54
2022-09-12T17:19:28.353Z,16.51
2022-09-12T17:21:55.588Z,16.44
2022-09-12T17:24:23.292Z,15.87
2022-09-12T17:26:51.830Z,16.21
2022-09-12T17:29:19.189Z,16.25
2022-09-12T17:31:46.829Z,15.69
2022-09-12T17:34:14.825Z,16.15
2022-09-12T17:36:44.662Z,16.09
2022-09-12T17:39:13.954Z,16.03
2022-09-12T17:41:46.307Z,15.97
2022-09-12T17:44:15.418Z,15.91
2022-09-12T17:46:42.969Z,15.87
2022-09-12T17:49:15.705Z,15.83
2022-09-12T17:51:44.200Z,15.80
2022-09-12T17:54:16.009Z,15.80
2022-09-12T17:56:44.463Z,15.73
2022-09-12T17:59:15.744Z,15.75
2022-09-12T18:02:01.721Z,15.64
2022-09-12T18:04:29.051Z,15.63
2022-09-12T18:06:57.816Z,15.51
2022-09-12T18:09:28.346Z,15.56
2022-09-12T18:11:55.980Z,15.52
2022-09-12T18:14:24.001Z,15.45
2022-09-12T18:16:52.366Z,15.42
2022-09-12T18:19:19.656Z,15.40
2022-09-12T18:21:47.003Z,15.05
2022-09-12T18:24:14.907Z,15.26
2022-09-12T18:26:43.906Z,15.26
2022-09-12T18:29:12.562Z,15.20
2022-09-12T18:31:39.899Z,15.16
2022-09-12T18:34:12.750Z,15.08
2022-09-12T18:36:41.623Z,14.80
2022-09-12T18:39:08.744Z,14.98
2022-09-12T18:41:36.496Z,14.95
2022-09-12T18:44:05.226Z,14.91
2022-09-12T18:46:34.450Z,14.97
2022-09-12T18:49:02.243Z,14.99
2022-09-12T18:51:33.060Z,14.85
2022-09-12T18:54:03.294Z,14.93
2022-09-12T18:56:35.424Z,14.93
2022-09-12T18:59:03.778Z,14.92
2022-09-12T19:01:33.807Z,14.97
2022-09-12T19:04:04.875Z,14.92
2022-09-12T19:06:35.231Z,14.89
2022-09-12T19:09:07.250Z,14.84
2022-09-12T19:11:36.910Z,14.86
2022-09-12T19:14:04.243Z,14.77
2022-09-12T19:16:31.694Z,14.75
2022-09-12T19:19:00.066Z,14.63
2022-09-12T19:21:30.619Z,14.69
2022-09-12T19:24:00.826Z,14.62
2022-09-12T19:26:28.378Z,14.55
2022-09-12T19:28:55.662Z,13.93
2022-09-12T19:31:23.588Z,14.35
2022-09-12T19:33:52.396Z,14.46
2022-09-12T19:36:43.866Z,14.37
2022-09-12T19:39:09.032Z,14.22
2022-09-12T19:41:37.186Z,14.30
2022-09-12T19:44:05.195Z,13.74
2022-09-12T19:46:32.896Z,14.02
2022-09-12T19:49:00.357Z,14.25
2022-09-12T19:51:27.675Z,14.18
2022-09-12T19:53:54.898Z,14.18
2022-09-12T19:56:22.149Z,14.16
2022-09-12T19:58:55.749Z,13.70
2022-09-12T20:01:28.607Z,14.08
2022-09-12T20:03:59.444Z,14.02
2022-09-12T20:06:27.619Z,14.01
2022-09-12T20:08:55.855Z,13.72
2022-09-12T20:11:24.152Z,13.94
2022-09-12T20:13:52.196Z,13.92
2022-09-12T20:16:25.795Z,13.72
2022-09-12T20:19:01.613Z,13.79
2022-09-12T20:21:34.426Z,13.79
2022-09-12T20:24:13.143Z,13.80
2022-09-12T20:26:40.954Z,13.78
2022-09-12T20:29:09.511Z,13.75
2022-09-12T20:31:38.802Z,13.71
2022-09-12T20:34:07.168Z,13.66
2022-09-12T20:36:34.623Z,13.66
2022-09-12T20:39:02.713Z,13.57
2022-09-12T20:41:32.340Z,13.64
2022-09-12T20:43:59.681Z,13.61
2022-09-12T20:46:28.527Z,13.55
2022-09-12T20:48:56.432Z,13.56
2022-09-12T20:51:26.833Z,13.54
2022-09-12T20:53:58.945Z,13.23
2022-09-12T20:56:28.603Z,13.45
2022-09-12T20:58:56.221Z,13.44
2022-09-12T21:01:24.166Z,13.33
2022-09-12T21:03:52.144Z,13.40
2022-09-12T21:06:19.887Z,13.37
2022-09-12T21:08:48.445Z,13.30
2022-09-12T21:11:16.461Z,13.26
2022-09-12T21:13:43.753Z,13.29
2022-09-12T21:16:16.241Z,13.32
2022-09-12T21:18:43.717Z,13.26
2022-09-12T21:21:15.194Z,13.24
2022-09-12T21:23:42.926Z,13.09
2022-09-12T21:26:10.702Z,13.06
2022-09-12T21:28:37.859Z,13.09
2022-09-12T21:31:05.246Z,13.08
2022-09-12T21:33:32.620Z,12.43
2022-09-12T21:36:07.101Z,13.00
2022-09-12T21:38:34.971Z,13.01
2022-09-12T21:41:07.290Z,12.96
2022-09-12T21:43:34.674Z,12.96
2022-09-12T21:46:02.290Z,12.89
2022-09-12T21:48:30.011Z,12.89
2022-09-12T21:50:57.542Z,12.90
2022-09-12T21:53:25.016Z,12.89
2022-09-12T21:55:52.542Z,12.71
2022-09-12T21:58:19.943Z,12.79
2022-09-12T22:00:47.400Z,12.67
2022-09-12T22:03:15.639Z,12.45
2022-09-12T22:05:43.381Z,12.63
2022-09-12T22:08:11.048Z,12.69
2022-09-12T22:10:38.749Z,12.68
2022-09-12T22:13:05.967Z,12.30
2022-09-12T22:15:41.227Z,12.63
2022-09-12T22:18:08.631Z,12.58
2022-09-12T22:20:35.677Z,12.40
2022-09-12T22:23:24.781Z,12.60
2022-09-12T22:25:56.134Z,12.53
2022-09-12T22:28:23.409Z,12.59
2022-09-12T22:30:50.918Z,12.39
2022-09-12T22:33:18.157Z,12.44
2022-09-12T22:35:45.136Z,12.66
2022-09-12T22:38:12.326Z,12.60
2022-09-12T22:40:39.371Z,12.53
2022-09-12T22:43:06.382Z,12.41
2022-09-12T22:45:33.387Z,12.44
2022-09-12T22:48:00.988Z,12.49
2022-09-12T22:50:28.793Z,12.47
2022-09-12T22:52:55.986Z,12.45
2022-09-12T22:55:23.189Z,12.22
2022-09-12T22:57:50.246Z,12.48
2022-09-12T23:00:18.551Z,12.46
2022-09-12T23:02:46.421Z,12.47
2022-09-12T23:05:13.447Z,12.15
2022-09-12T23:07:40.482Z,12.19
2022-09-12T23:10:08.233Z,11.83
2022-09-12T23:12:35.310Z,12.48
2022-09-12T23:15:02.346Z,12.44
2022-09-12T23:17:29.465Z,12.40
2022-09-12T23:19:56.576Z,12.57
2022-09-12T23:22:23.587Z,12.31
2022-09-12T23:24:50.714Z,12.48
2022-09-12T23:27:17.819Z,12.50
2022-09-12T23:29:44.790Z,12.54
2022-09-12T23:32:12.026Z,12.53
2022-09-12T23:34:39.272Z,12.54
2022-09-12T23:37:07.086Z,12.47
2022-09-12T23:39:34.347Z,12.51
2022-09-12T23:42:01.603Z,12.24
2022-09-12T23:44:28.765Z,12.39
2022-09-12T23:46:55.826Z,12.50
2022-09-12T23:49:22.911Z,12.23
2022-09-12T23:51:50.055Z,12.30
2022-09-12T23:54:17.112Z,12.50
2022-09-12T23:56:44.187Z,12.47
2022-09-12T23:59:11.287Z,12.46
